createdAt,value
2018-06-16T00:00:05.594Z,888.36
2018-06-16T00:01:05.580Z,888.38
2018-06-16T00:02:05.570Z,888.39
2018-06-16T00:03:05.563Z,888.39
2018-06-16T00:04:05.549Z,888.42
2018-06-16T00:05:05.544Z,888.39
2018-06-16T00:06:05.535Z,888.39
2018-06-16T00:07:05.524Z,888.38
2018-06-16T00:08:05.517Z,888.39
2018-06-16T00:09:05.513Z,888.37
2018-06-16T00:10:05.493Z,888.38
2018-06-16T00:11:05.487Z,888.35
2018-06-16T00:12:05.480Z,888.33
2018-06-16T00:13:05.470Z,888.33
2018-06-16T00:14:05.454Z,888.32
2018-06-16T00:15:05.448Z,888.28
2018-06-16T00:16:05.439Z,888.27
2018-06-16T00:17:05.430Z,888.24
2018-06-16T00:18:05.417Z,888.25
2018-06-16T00:19:05.405Z,888.25
2018-06-16T00:20:05.399Z,888.22
2018-06-16T00:21:05.390Z,888.22
2018-06-16T00:22:05.382Z,888.20
2018-06-16T00:23:05.368Z,888.20
2018-06-16T00:24:05.362Z,888.21
2018-06-16T00:25:05.348Z,888.18
2018-06-16T00:26:05.337Z,888.17
2018-06-16T00:27:05.333Z,888.17
2018-06-16T00:28:05.318Z,888.18
2018-06-16T00:29:05.312Z,888.17
2018-06-16T00:30:05.299Z,888.17
2018-06-16T00:31:05.290Z,888.14
2018-06-16T00:32:05.279Z,888.16
2018-06-16T00:33:05.272Z,888.17
2018-06-16T00:34:05.264Z,888.14
2018-06-16T00:35:05.248Z,888.11
2018-06-16T00:36:05.239Z,888.08
2018-06-16T00:37:05.238Z,888.10
2018-06-16T00:38:05.227Z,888.11
2018-06-16T00:39:05.209Z,888.09
2018-06-16T00:40:05.199Z,888.08
2018-06-16T00:41:05.193Z,888.06
2018-06-16T00:42:05.176Z,888.07
2018-06-16T00:43:05.176Z,888.07
2018-06-16T00:44:05.167Z,888.04
2018-06-16T00:45:05.153Z,888.04
2018-06-16T00:46:05.140Z,888.04
2018-06-16T00:47:05.135Z,888.01
2018-06-16T00:48:05.126Z,888.00
2018-06-16T00:49:05.107Z,887.98
2018-06-16T00:50:05.101Z,887.96
2018-06-16T00:51:05.090Z,887.96
2018-06-16T00:52:05.085Z,887.94
2018-06-16T00:53:05.075Z,887.95
2018-06-16T00:54:05.059Z,887.95
2018-06-16T00:55:05.049Z,887.92
2018-06-16T00:56:05.043Z,887.95
2018-06-16T00:57:05.033Z,887.92
2018-06-16T00:58:05.023Z,887.90
2018-06-16T00:59:05.012Z,887.88
2018-06-16T01:00:05.004Z,887.91
2018-06-16T01:01:04.991Z,887.92
2018-06-16T01:02:04.975Z,887.90
2018-06-16T01:03:04.973Z,887.92
2018-06-16T01:04:04.962Z,887.90
2018-06-16T01:05:04.952Z,887.89
2018-06-16T01:06:04.946Z,887.88
2018-06-16T01:07:04.934Z,887.85
2018-06-16T01:08:04.920Z,887.89
2018-06-16T01:09:04.910Z,887.87
2018-06-16T01:10:04.898Z,887.84
2018-06-16T01:11:04.891Z,887.83
2018-06-16T01:12:04.881Z,887.81
2018-06-16T01:13:04.875Z,887.83
2018-06-16T01:14:04.860Z,887.84
2018-06-16T01:15:04.851Z,887.80
2018-06-16T01:16:04.840Z,887.82
2018-06-16T01:17:04.834Z,887.80
2018-06-16T01:18:04.822Z,887.83
2018-06-16T01:19:04.812Z,887.80
2018-06-16T01:20:04.803Z,887.77
2018-06-16T01:21:04.795Z,887.78
2018-06-16T01:22:04.785Z,887.76
2018-06-16T01:23:04.771Z,887.75
2018-06-16T01:24:04.761Z,887.78
2018-06-16T01:25:04.748Z,887.76
2018-06-16T01:26:04.748Z,887.78
2018-06-16T01:27:04.728Z,887.77
2018-06-16T01:28:04.717Z,887.75
2018-06-16T01:29:04.706Z,887.73
2018-06-16T01:30:04.700Z,887.79
2018-06-16T01:31:04.703Z,887.82
2018-06-16T01:32:04.679Z,887.75
2018-06-16T01:33:04.673Z,887.72
2018-06-16T01:34:04.651Z,887.74
2018-06-16T01:35:04.649Z,887.72
2018-06-16T01:36:04.641Z,887.71
2018-06-16T01:37:04.633Z,887.76
2018-06-16T01:38:04.617Z,887.73
2018-06-16T01:39:04.609Z,887.73
2018-06-16T01:40:04.592Z,887.75
2018-06-16T01:41:04.586Z,887.72
2018-06-16T01:42:04.572Z,887.73
2018-06-16T01:43:04.565Z,887.74
2018-06-16T01:44:04.555Z,887.73
2018-06-16T01:45:04.546Z,887.77
2018-06-16T01:46:04.537Z,887.74
2018-06-16T01:47:04.518Z,887.73
2018-06-16T01:48:04.515Z,887.73
2018-06-16T01:49:04.505Z,887.70
2018-06-16T01:50:04.493Z,887.71
2018-06-16T01:51:04.483Z,887.72
2018-06-16T01:52:04.476Z,887.72
2018-06-16T01:53:04.464Z,887.72
2018-06-16T01:54:04.452Z,887.72
2018-06-16T01:55:04.439Z,887.71
2018-06-16T01:56:04.427Z,887.76
2018-06-16T01:57:04.427Z,887.77
2018-06-16T01:58:04.409Z,887.73
2018-06-16T01:59:04.403Z,887.76
2018-06-16T02:00:04.389Z,887.75
2018-06-16T02:01:04.384Z,887.77
2018-06-16T02:02:04.375Z,887.77
2018-06-16T02:03:04.359Z,887.76
2018-06-16T02:04:04.348Z,887.76
2018-06-16T02:05:04.340Z,887.77
2018-06-16T02:06:04.330Z,887.77
2018-06-16T02:07:04.318Z,887.74
2018-06-16T02:08:04.302Z,887.81
2018-06-16T02:09:04.296Z,887.78
2018-06-16T02:10:04.289Z,887.78
2018-06-16T02:11:04.278Z,887.77
2018-06-16T02:12:04.264Z,887.76
2018-06-16T02:13:04.255Z,887.77
2018-06-16T02:14:04.245Z,887.78
2018-06-16T02:15:04.235Z,887.76
2018-06-16T02:16:04.234Z,887.80
2018-06-16T02:17:04.219Z,887.79
2018-06-16T02:18:04.206Z,887.77
2018-06-16T02:19:04.197Z,887.75
2018-06-16T02:20:04.188Z,887.74
2018-06-16T02:21:04.176Z,887.73
2018-06-16T02:22:04.156Z,887.73
2018-06-16T02:23:04.148Z,887.72
2018-06-16T02:24:04.141Z,887.77
2018-06-16T02:25:04.131Z,887.77
2018-06-16T02:26:04.121Z,887.77
2018-06-16T02:27:04.117Z,887.76
2018-06-16T02:28:04.104Z,887.78
2018-06-16T02:29:04.086Z,887.71
2018-06-16T02:30:04.081Z,887.74
2018-06-16T02:31:04.067Z,887.74
2018-06-16T02:32:04.069Z,887.74
2018-06-16T02:33:04.050Z,887.75
2018-06-16T02:34:04.039Z,887.74
2018-06-16T02:35:04.029Z,887.73
2018-06-16T02:36:04.017Z,887.73
2018-06-16T02:37:04.008Z,887.73
2018-06-16T02:38:03.997Z,887.71
2018-06-16T02:39:03.989Z,887.73
2018-06-16T02:40:03.977Z,887.74
2018-06-16T02:41:03.965Z,887.71
2018-06-16T02:42:03.951Z,887.72
2018-06-16T02:43:03.950Z,887.69
2018-06-16T02:44:03.936Z,887.70
2018-06-16T02:45:03.927Z,887.71
2018-06-16T02:46:03.916Z,887.68
2018-06-16T02:47:03.903Z,887.66
2018-06-16T02:48:03.892Z,887.71
2018-06-16T02:49:03.884Z,887.69
2018-06-16T02:50:03.871Z,887.64
2018-06-16T02:51:03.861Z,887.72
2018-06-16T02:52:03.852Z,887.70
2018-06-16T02:53:03.841Z,887.70
2018-06-16T02:54:03.853Z,887.70
2018-06-16T02:55:03.818Z,887.71
2018-06-16T02:56:03.806Z,887.71
2018-06-16T02:57:03.796Z,887.70
2018-06-16T02:58:03.790Z,887.73
2018-06-16T02:59:03.778Z,887.77
2018-06-16T03:00:03.763Z,887.74
2018-06-16T03:01:03.755Z,887.75
2018-06-16T03:02:03.745Z,887.73
2018-06-16T03:03:03.734Z,887.72
2018-06-16T03:04:03.726Z,887.73
2018-06-16T03:05:03.717Z,887.71
2018-06-16T03:06:03.702Z,887.73
2018-06-16T03:07:03.693Z,887.74
2018-06-16T03:08:03.682Z,887.75
2018-06-16T03:09:03.668Z,887.76
2018-06-16T03:10:03.665Z,887.75
2018-06-16T03:11:03.652Z,887.77
2018-06-16T03:12:03.644Z,887.75
2018-06-16T03:13:03.628Z,887.76
2018-06-16T03:14:03.619Z,887.72
2018-06-16T03:15:03.653Z,887.73
2018-06-16T03:16:03.599Z,887.74
2018-06-16T03:17:03.593Z,887.71
2018-06-16T03:18:03.576Z,887.73
2018-06-16T03:19:03.567Z,887.74
2018-06-16T03:20:03.553Z,887.72
2018-06-16T03:21:03.547Z,887.70
2018-06-16T03:22:03.535Z,887.73
2018-06-16T03:23:03.525Z,887.72
2018-06-16T03:24:03.516Z,887.69
2018-06-16T03:25:03.501Z,887.70
2018-06-16T03:26:03.490Z,887.72
2018-06-16T03:27:03.487Z,887.68
2018-06-16T03:28:03.473Z,887.71
2018-06-16T03:29:03.457Z,887.72
2018-06-16T03:30:03.452Z,887.72
2018-06-16T03:31:03.438Z,887.67
2018-06-16T03:32:03.429Z,887.71
2018-06-16T03:33:03.418Z,887.71
2018-06-16T03:34:03.409Z,887.71
2018-06-16T03:35:03.394Z,887.77
2018-06-16T03:36:03.389Z,887.73
2018-06-16T03:37:03.374Z,887.76
2018-06-16T03:38:03.366Z,887.77
2018-06-16T03:39:03.349Z,887.74
2018-06-16T03:40:03.343Z,887.73
2018-06-16T03:41:03.335Z,887.74
2018-06-16T03:42:03.317Z,887.72
2018-06-16T03:43:03.309Z,887.73
2018-06-16T03:44:03.302Z,887.74
2018-06-16T03:45:03.286Z,887.72
2018-06-16T03:46:03.275Z,887.76
2018-06-16T03:47:03.284Z,887.73
2018-06-16T03:48:03.253Z,887.77
2018-06-16T03:49:03.243Z,887.77
2018-06-16T03:50:03.234Z,887.79
2018-06-16T03:51:03.225Z,887.84
2018-06-16T03:52:03.213Z,887.79
2018-06-16T03:53:03.203Z,887.81
2018-06-16T03:54:03.190Z,887.79
2018-06-16T03:55:03.185Z,887.83
2018-06-16T03:56:03.172Z,887.80
2018-06-16T03:57:03.160Z,887.77
2018-06-16T03:58:03.150Z,887.78
2018-06-16T03:59:03.138Z,887.76
2018-06-16T04:00:03.127Z,887.77
2018-06-16T04:01:03.117Z,887.78
2018-06-16T04:02:03.107Z,887.80
2018-06-16T04:03:03.094Z,887.78
2018-06-16T04:04:03.090Z,887.77
2018-06-16T04:05:03.080Z,887.83
2018-06-16T04:06:03.064Z,887.74
2018-06-16T04:07:03.050Z,887.73
2018-06-16T04:08:03.046Z,887.75
2018-06-16T04:09:03.028Z,887.72
2018-06-16T04:10:03.019Z,887.70
2018-06-16T04:11:03.007Z,887.74
2018-06-16T04:12:03.008Z,887.71
2018-06-16T04:13:02.985Z,887.74
2018-06-16T04:14:02.981Z,887.75
2018-06-16T04:15:02.964Z,887.72
2018-06-16T04:16:02.956Z,887.74
2018-06-16T04:17:02.941Z,887.74
2018-06-16T04:18:02.931Z,887.76
2018-06-16T04:19:02.920Z,887.74
2018-06-16T04:20:02.913Z,887.73
2018-06-16T04:21:02.898Z,887.70
2018-06-16T04:22:02.889Z,887.69
2018-06-16T04:23:02.886Z,887.67
2018-06-16T04:24:02.897Z,887.63
2018-06-16T04:25:02.858Z,887.70
2018-06-16T04:26:02.845Z,887.67
2018-06-16T04:27:02.840Z,887.66
2018-06-16T04:28:02.821Z,887.66
2018-06-16T04:29:02.812Z,887.64
2018-06-16T04:30:02.803Z,887.64
2018-06-16T04:31:02.795Z,887.63
2018-06-16T04:32:02.782Z,887.62
2018-06-16T04:33:02.771Z,887.60
2018-06-16T04:34:02.758Z,887.59
2018-06-16T04:35:02.748Z,887.63
2018-06-16T04:36:02.743Z,887.61
2018-06-16T04:37:02.721Z,887.58
2018-06-16T04:38:02.715Z,887.59
2018-06-16T04:39:02.707Z,887.60
2018-06-16T04:40:02.696Z,887.61
2018-06-16T04:41:02.683Z,887.56
2018-06-16T04:42:02.673Z,887.59
2018-06-16T04:43:02.659Z,887.58
2018-06-16T04:44:02.652Z,887.62
2018-06-16T04:45:02.640Z,887.64
2018-06-16T04:46:02.629Z,887.62
2018-06-16T04:47:02.618Z,887.62
2018-06-16T04:48:02.606Z,887.62
2018-06-16T04:49:02.596Z,887.65
2018-06-16T04:50:02.588Z,887.64
2018-06-16T04:51:02.576Z,887.64
2018-06-16T04:52:02.568Z,887.64
2018-06-16T04:53:02.552Z,887.62
2018-06-16T04:54:02.537Z,887.62
2018-06-16T04:55:02.535Z,887.60
2018-06-16T04:56:02.515Z,887.60
2018-06-16T04:57:02.560Z,887.60
2018-06-16T04:58:02.497Z,887.61
2018-06-16T04:59:02.483Z,887.60
2018-06-16T05:00:02.479Z,887.59
2018-06-16T05:01:02.468Z,887.61
2018-06-16T05:02:02.457Z,887.58
2018-06-16T05:03:02.442Z,887.60
2018-06-16T05:04:02.433Z,887.60
2018-06-16T05:05:02.430Z,887.58
2018-06-16T05:06:02.411Z,887.59
2018-06-16T05:07:02.400Z,887.54
2018-06-16T05:08:02.403Z,887.58
2018-06-16T05:09:02.384Z,887.57
2018-06-16T05:10:02.358Z,887.58
2018-06-16T05:11:02.352Z,887.60
2018-06-16T05:12:02.346Z,887.58
2018-06-16T05:13:02.332Z,887.61
2018-06-16T05:14:02.320Z,887.57
2018-06-16T05:15:02.308Z,887.58
2018-06-16T05:16:02.303Z,887.55
2018-06-16T05:17:02.358Z,887.55
2018-06-16T05:18:02.290Z,887.57
2018-06-16T05:19:02.267Z,887.56
2018-06-16T05:20:02.258Z,887.54
2018-06-16T05:21:02.246Z,887.53
2018-06-16T05:22:02.238Z,887.53
2018-06-16T05:23:02.231Z,887.56
2018-06-16T05:24:02.212Z,887.49
2018-06-16T05:25:02.205Z,887.57
2018-06-16T05:26:02.189Z,887.55
2018-06-16T05:27:02.179Z,887.56
2018-06-16T05:28:02.182Z,887.54
2018-06-16T05:29:02.161Z,887.56
2018-06-16T05:30:02.152Z,887.52
2018-06-16T05:31:02.137Z,887.46
2018-06-16T05:32:02.127Z,887.45
2018-06-16T05:33:02.116Z,887.42
2018-06-16T05:34:02.108Z,887.44
2018-06-16T05:35:02.095Z,887.42
2018-06-16T05:36:02.090Z,887.42
2018-06-16T05:37:02.075Z,887.41
2018-06-16T05:38:02.063Z,887.42
2018-06-16T05:39:02.053Z,887.44
2018-06-16T05:40:02.034Z,887.46
2018-06-16T05:41:02.034Z,887.43
2018-06-16T05:42:02.017Z,887.44
2018-06-16T05:43:02.002Z,887.47
2018-06-16T05:44:01.994Z,887.50
2018-06-16T05:45:01.992Z,887.47
2018-06-16T05:46:01.973Z,887.52
2018-06-16T05:47:01.964Z,887.54
2018-06-16T05:48:01.953Z,887.52
2018-06-16T05:49:01.943Z,887.55
2018-06-16T05:50:01.934Z,887.52
2018-06-16T05:51:01.915Z,887.54
2018-06-16T05:52:01.915Z,887.51
2018-06-16T05:53:01.895Z,887.55
2018-06-16T05:54:01.897Z,887.55
2018-06-16T05:55:01.877Z,887.55
2018-06-16T05:56:01.873Z,887.53
2018-06-16T05:57:01.856Z,887.54
2018-06-16T05:58:01.840Z,887.58
2018-06-16T05:59:01.838Z,887.59
2018-06-16T06:00:01.826Z,887.62
2018-06-16T06:01:01.819Z,887.62
2018-06-16T06:02:01.804Z,887.60
2018-06-16T06:03:01.792Z,887.60
2018-06-16T06:04:01.785Z,887.61
2018-06-16T06:05:01.766Z,887.58
2018-06-16T06:06:01.753Z,887.60
2018-06-16T06:07:01.745Z,887.59
2018-06-16T06:08:01.734Z,887.58
2018-06-16T06:09:01.727Z,887.57
2018-06-16T06:10:01.712Z,887.61
2018-06-16T06:11:01.696Z,887.63
2018-06-16T06:12:01.693Z,887.61
2018-06-16T06:13:01.687Z,887.65
2018-06-16T06:14:01.673Z,887.64
2018-06-16T06:15:01.666Z,887.63
2018-06-16T06:16:01.654Z,887.66
2018-06-16T06:17:01.641Z,887.66
2018-06-16T06:18:01.632Z,887.66
2018-06-16T06:19:01.624Z,887.70
2018-06-16T06:20:01.605Z,887.70
2018-06-16T06:21:01.599Z,887.70
2018-06-16T06:22:01.591Z,887.68
2018-06-16T06:23:01.569Z,887.69
2018-06-16T06:24:01.567Z,887.67
2018-06-16T06:25:01.563Z,887.68
2018-06-16T06:26:01.551Z,887.67
2018-06-16T06:27:01.535Z,887.71
2018-06-16T06:28:01.532Z,887.72
2018-06-16T06:29:01.518Z,887.68
2018-06-16T06:30:01.511Z,887.72
2018-06-16T06:31:01.494Z,887.75
2018-06-16T06:32:01.496Z,887.73
2018-06-16T06:33:01.476Z,887.74
2018-06-16T06:34:01.469Z,887.77
2018-06-16T06:35:01.458Z,887.75
2018-06-16T06:36:01.449Z,887.79
2018-06-16T06:37:01.437Z,887.76
2018-06-16T06:38:01.429Z,887.75
2018-06-16T06:39:01.423Z,887.73
2018-06-16T06:40:01.409Z,887.72
2018-06-16T06:41:01.399Z,887.73
2018-06-16T06:42:01.389Z,887.74
2018-06-16T06:43:01.381Z,887.73
2018-06-16T06:44:01.374Z,887.72
2018-06-16T06:45:01.371Z,887.69
2018-06-16T06:46:01.350Z,887.69
2018-06-16T06:47:01.346Z,887.69
2018-06-16T06:48:01.336Z,887.67
2018-06-16T06:49:01.323Z,887.70
2018-06-16T06:50:01.315Z,887.71
2018-06-16T06:51:01.302Z,887.70
2018-06-16T06:52:01.294Z,887.71
2018-06-16T06:53:01.290Z,887.70
2018-06-16T06:54:01.276Z,887.70
2018-06-16T06:55:01.269Z,887.73
2018-06-16T06:56:01.256Z,887.71
2018-06-16T06:57:01.258Z,887.71
2018-06-16T06:58:01.297Z,887.67
2018-06-16T06:59:01.227Z,887.66
2018-06-16T07:00:01.219Z,887.70
2018-06-16T07:01:01.220Z,887.69
2018-06-16T07:02:01.205Z,887.74
2018-06-16T07:03:01.199Z,887.71
2018-06-16T07:04:01.262Z,887.69
2018-06-16T07:05:01.189Z,887.72
2018-06-16T07:06:01.168Z,887.69
2018-06-16T07:07:01.162Z,887.68
2018-06-16T07:08:01.166Z,887.70
2018-06-16T07:09:01.142Z,887.70
2018-06-16T07:10:01.132Z,887.72
2018-06-16T07:11:01.120Z,887.67
2018-06-16T07:12:01.114Z,887.66
2018-06-16T07:13:01.106Z,887.65
2018-06-16T07:14:01.096Z,887.65
2018-06-16T07:15:01.095Z,887.62
2018-06-16T07:16:01.080Z,887.62
2018-06-16T07:17:01.071Z,887.58
2018-06-16T07:18:01.065Z,887.55
2018-06-16T07:19:01.057Z,887.52
2018-06-16T07:20:01.051Z,887.53
2018-06-16T07:21:01.041Z,887.52
2018-06-16T07:22:01.028Z,887.54
2018-06-16T07:23:01.021Z,887.57
2018-06-16T07:24:01.015Z,887.55
2018-06-16T07:25:01.008Z,887.54
2018-06-16T07:26:01.001Z,887.57
2018-06-16T07:27:01.021Z,887.52
2018-06-16T07:28:00.981Z,887.55
2018-06-16T07:29:00.974Z,887.54
2018-06-16T07:30:00.963Z,887.54
2018-06-16T07:31:00.950Z,887.58
2018-06-16T07:32:00.943Z,887.53
2018-06-16T07:33:00.940Z,887.51
2018-06-16T07:34:00.931Z,887.57
2018-06-16T07:35:00.924Z,887.54
2018-06-16T07:36:00.903Z,887.54
2018-06-16T07:37:00.906Z,887.52
2018-06-16T07:38:00.893Z,887.53
2018-06-16T07:39:00.973Z,887.52
2018-06-16T07:40:00.884Z,887.57
2018-06-16T07:41:00.874Z,887.52
2018-06-16T07:42:00.862Z,887.50
2018-06-16T07:43:00.856Z,887.51
2018-06-16T07:44:00.852Z,887.49
2018-06-16T07:45:00.841Z,887.48
2018-06-16T07:46:00.828Z,887.47
2018-06-16T07:47:00.823Z,887.46
2018-06-16T07:48:00.815Z,887.47
2018-06-16T07:49:00.814Z,887.42
2018-06-16T07:50:00.802Z,887.43
2018-06-16T07:51:00.798Z,887.39
2018-06-16T07:52:00.784Z,887.44
2018-06-16T07:53:00.780Z,887.40
2018-06-16T07:54:00.772Z,887.42
2018-06-16T07:55:00.762Z,887.39
2018-06-16T07:56:00.753Z,887.39
2018-06-16T07:57:00.752Z,887.37
2018-06-16T07:58:00.731Z,887.37
2018-06-16T07:59:00.729Z,887.32
2018-06-16T08:00:00.716Z,887.32
2018-06-16T08:01:00.712Z,887.29
2018-06-16T08:02:00.716Z,887.30
2018-06-16T08:03:00.698Z,887.26
2018-06-16T08:04:00.693Z,887.24
2018-06-16T08:05:00.682Z,887.27
2018-06-16T08:06:00.672Z,887.24
2018-06-16T08:07:00.668Z,887.26
2018-06-16T08:08:00.652Z,887.24
2018-06-16T08:09:00.648Z,887.22
2018-06-16T08:10:00.637Z,887.27
2018-06-16T08:11:00.634Z,887.27
2018-06-16T08:12:00.626Z,887.29
2018-06-16T08:13:00.624Z,887.27
2018-06-16T08:14:00.617Z,887.26
2018-06-16T08:15:00.601Z,887.27
2018-06-16T08:16:00.598Z,887.28
2018-06-16T08:17:00.590Z,887.22
2018-06-16T08:18:00.672Z,887.23
2018-06-16T08:19:00.571Z,887.28
2018-06-16T08:20:00.567Z,887.29
2018-06-16T08:21:00.558Z,887.25
2018-06-16T08:22:00.549Z,887.24
2018-06-16T08:23:00.540Z,887.22
2018-06-16T08:24:00.535Z,887.21
2018-06-16T08:25:00.537Z,887.21
2018-06-16T08:26:00.516Z,887.17
2018-06-16T08:27:00.507Z,887.19
2018-06-16T08:28:00.500Z,887.18
2018-06-16T08:29:00.494Z,887.14
2018-06-16T08:30:00.486Z,887.13
2018-06-16T08:31:00.484Z,887.09
2018-06-16T08:32:00.470Z,887.10
2018-06-16T08:33:00.467Z,887.10
2018-06-16T08:34:00.459Z,887.10
2018-06-16T08:35:00.448Z,887.10
2018-06-16T08:36:00.442Z,887.14
2018-06-16T08:37:00.430Z,887.11
2018-06-16T08:38:00.424Z,887.09
2018-06-16T08:39:00.416Z,887.09
2018-06-16T08:40:00.407Z,887.10
2018-06-16T08:41:00.398Z,887.09
2018-06-16T08:42:00.390Z,887.08
2018-06-16T08:43:00.388Z,887.07
2018-06-16T08:44:00.377Z,887.06
2018-06-16T08:45:00.369Z,887.02
2018-06-16T08:46:00.376Z,887.04
2018-06-16T08:47:00.359Z,887.04
2018-06-16T08:48:00.350Z,887.05
2018-06-16T08:49:00.341Z,887.02
2018-06-16T08:50:00.331Z,887.03
2018-06-16T08:51:00.324Z,887.04
2018-06-16T08:52:00.316Z,887.02
2018-06-16T08:53:00.313Z,887.04
2018-06-16T08:54:00.302Z,887.03
2018-06-16T08:55:00.296Z,887.06
2018-06-16T08:56:00.286Z,887.04
2018-06-16T08:57:00.282Z,887.04
2018-06-16T08:58:00.272Z,887.03
2018-06-16T08:59:00.269Z,887.03
2018-06-16T09:00:00.274Z,887.04
2018-06-16T09:01:00.243Z,887.06
2018-06-16T09:02:00.254Z,887.07
2018-06-16T09:03:00.232Z,887.08
2018-06-16T09:04:00.223Z,887.07
2018-06-16T09:05:00.215Z,887.05
2018-06-16T09:06:00.212Z,887.03
2018-06-16T09:07:00.207Z,887.04
2018-06-16T09:08:00.198Z,887.04
2018-06-16T09:09:00.190Z,887.04
2018-06-16T09:10:00.180Z,887.05
2018-06-16T09:11:00.186Z,887.01
2018-06-16T09:12:00.165Z,887.01
2018-06-16T09:13:00.160Z,887.02
2018-06-16T09:14:00.226Z,887.01
2018-06-16T09:15:00.156Z,886.99
2018-06-16T09:16:00.132Z,887.00
2018-06-16T09:17:00.126Z,887.03
2018-06-16T09:18:00.115Z,887.00
2018-06-16T09:19:00.113Z,887.01
2018-06-16T09:20:00.106Z,887.01
2018-06-16T09:21:00.098Z,887.01
2018-06-16T09:22:00.084Z,887.02
2018-06-16T09:23:00.081Z,887.02
2018-06-16T09:24:00.084Z,886.99
2018-06-16T09:25:00.069Z,886.99
2018-06-16T09:26:00.057Z,887.00
2018-06-16T09:27:00.050Z,886.98
2018-06-16T09:28:00.054Z,887.02
2018-06-16T09:29:00.036Z,887.00
2018-06-16T09:30:00.026Z,887.03
2018-06-16T09:31:00.022Z,887.00
2018-06-16T09:32:00.020Z,887.00
2018-06-16T09:33:00.012Z,887.01
2018-06-16T09:34:00.001Z,886.98
2018-06-16T09:34:59.990Z,886.98
2018-06-16T09:35:59.988Z,886.95
2018-06-16T09:36:59.978Z,886.98
2018-06-16T09:37:59.964Z,886.97
2018-06-16T09:38:59.960Z,886.95
2018-06-16T09:39:59.953Z,886.97
2018-06-16T09:40:59.945Z,886.98
2018-06-16T09:41:59.950Z,887.02
2018-06-16T09:42:59.929Z,886.98
2018-06-16T09:43:59.919Z,887.01
2018-06-16T09:44:59.921Z,887.01
2018-06-16T09:45:59.906Z,886.96
2018-06-16T09:46:59.904Z,886.99
2018-06-16T09:47:59.896Z,887.00
2018-06-16T09:48:59.888Z,886.98
2018-06-16T09:49:59.872Z,887.01
2018-06-16T09:50:59.872Z,886.97
2018-06-16T09:51:59.863Z,886.99
2018-06-16T09:52:59.855Z,886.98
2018-06-16T09:53:59.847Z,887.03
2018-06-16T09:54:59.839Z,887.02
2018-06-16T09:55:59.836Z,886.95
2018-06-16T09:56:59.826Z,886.97
2018-06-16T09:57:59.823Z,886.98
2018-06-16T09:58:59.814Z,886.96
2018-06-16T09:59:59.804Z,886.95
2018-06-16T10:00:59.798Z,886.96
2018-06-16T10:01:59.790Z,886.95
2018-06-16T10:02:59.788Z,886.96
2018-06-16T10:03:59.775Z,886.96
2018-06-16T10:04:59.767Z,886.95
2018-06-16T10:05:59.757Z,886.94
2018-06-16T10:07:02.499Z,886.97
2018-06-16T10:07:59.753Z,886.95
2018-06-16T10:08:59.755Z,886.94
2018-06-16T10:09:59.727Z,886.94
2018-06-16T10:10:59.731Z,886.95
2018-06-16T10:11:59.718Z,887.00
2018-06-16T10:12:59.721Z,886.96
2018-06-16T10:13:59.700Z,886.96
2018-06-16T10:14:59.699Z,886.96
2018-06-16T10:15:59.730Z,886.98
2018-06-16T10:16:59.699Z,886.97
2018-06-16T10:17:59.678Z,887.02
2018-06-16T10:18:59.674Z,886.97
2018-06-16T10:19:59.659Z,887.02
2018-06-16T10:20:59.653Z,887.02
2018-06-16T10:21:59.645Z,886.98
2018-06-16T10:22:59.636Z,886.97
2018-06-16T10:23:59.637Z,886.97
2018-06-16T10:24:59.623Z,886.98
2018-06-16T10:25:59.617Z,886.95
2018-06-16T10:26:59.613Z,886.96
2018-06-16T10:27:59.606Z,886.92
2018-06-16T10:28:59.610Z,886.92
2018-06-16T10:29:59.588Z,886.95
2018-06-16T10:30:59.583Z,886.88
2018-06-16T10:31:59.571Z,886.90
2018-06-16T10:32:59.563Z,886.91
2018-06-16T10:33:59.558Z,886.88
2018-06-16T10:34:59.552Z,886.88
2018-06-16T10:35:59.552Z,886.83
2018-06-16T10:36:59.543Z,886.82
2018-06-16T10:37:59.532Z,886.83
2018-06-16T10:38:59.518Z,886.88
2018-06-16T10:39:59.520Z,886.86
2018-06-16T10:40:59.507Z,886.85
2018-06-16T10:41:59.504Z,886.84
2018-06-16T10:42:59.498Z,886.83
2018-06-16T10:43:59.496Z,886.82
2018-06-16T10:44:59.484Z,886.80
2018-06-16T10:45:59.470Z,886.87
2018-06-16T10:46:59.471Z,886.81
2018-06-16T10:47:59.473Z,886.82
2018-06-16T10:48:59.457Z,886.80
2018-06-16T10:49:59.481Z,886.77
2018-06-16T10:50:59.442Z,886.76
2018-06-16T10:51:59.435Z,886.75
2018-06-16T10:52:59.431Z,886.75
2018-06-16T10:53:59.414Z,886.72
2018-06-16T10:54:59.416Z,886.74
2018-06-16T10:55:59.404Z,886.69
2018-06-16T10:56:59.402Z,886.69
2018-06-16T10:57:59.392Z,886.69
2018-06-16T10:58:59.389Z,886.69
2018-06-16T10:59:59.377Z,886.66
2018-06-16T11:00:59.373Z,886.67
2018-06-16T11:01:59.365Z,886.68
2018-06-16T11:02:59.360Z,886.64
2018-06-16T11:03:59.358Z,886.68
2018-06-16T11:04:59.343Z,886.64
2018-06-16T11:05:59.336Z,886.60
2018-06-16T11:06:59.336Z,886.60
2018-06-16T11:07:59.321Z,886.61
2018-06-16T11:08:59.323Z,886.61
2018-06-16T11:09:59.314Z,886.59
2018-06-16T11:10:59.305Z,886.56
2018-06-16T11:11:59.302Z,886.53
2018-06-16T11:12:59.295Z,886.56
2018-06-16T11:13:59.288Z,886.49
2018-06-16T11:14:59.279Z,886.54
2018-06-16T11:15:59.275Z,886.51
2018-06-16T11:16:59.270Z,886.53
2018-06-16T11:17:59.260Z,886.52
2018-06-16T11:18:59.670Z,886.51
2018-06-16T11:19:59.248Z,886.50
2018-06-16T11:20:59.246Z,886.53
2018-06-16T11:21:59.236Z,886.47
2018-06-16T11:22:59.237Z,886.48
2018-06-16T11:23:59.230Z,886.48
2018-06-16T11:24:59.219Z,886.43
2018-06-16T11:25:59.207Z,886.44
2018-06-16T11:26:59.203Z,886.44
2018-06-16T11:27:59.198Z,886.47
2018-06-16T11:28:59.188Z,886.45
2018-06-16T11:29:59.190Z,886.41
2018-06-16T11:30:59.178Z,886.40
2018-06-16T11:31:59.169Z,886.41
2018-06-16T11:32:59.167Z,886.41
2018-06-16T11:33:59.157Z,886.35
2018-06-16T11:34:59.149Z,886.37
2018-06-16T11:35:59.147Z,886.34
2018-06-16T11:36:59.141Z,886.37
2018-06-16T11:37:59.133Z,886.34
2018-06-16T11:38:59.129Z,886.35
2018-06-16T11:39:59.120Z,886.33
2018-06-16T11:40:59.112Z,886.36
2018-06-16T11:41:59.126Z,886.37
2018-06-16T11:42:59.102Z,886.35
2018-06-16T11:43:59.096Z,886.37
2018-06-16T11:44:59.088Z,886.37
2018-06-16T11:45:59.088Z,886.34
2018-06-16T11:46:59.085Z,886.35
2018-06-16T11:47:59.073Z,886.29
2018-06-16T11:48:59.072Z,886.34
2018-06-16T11:49:59.056Z,886.33
2018-06-16T11:50:59.057Z,886.33
2018-06-16T11:51:59.044Z,886.35
2018-06-16T11:52:59.040Z,886.33
2018-06-16T11:53:59.038Z,886.33
2018-06-16T11:54:59.024Z,886.35
2018-06-16T11:55:59.025Z,886.34
2018-06-16T11:56:59.018Z,886.31
2018-06-16T11:57:59.015Z,886.31
2018-06-16T11:58:59.003Z,886.31
2018-06-16T11:59:58.998Z,886.26
2018-06-16T12:00:58.991Z,886.27
2018-06-16T12:01:59.022Z,886.23
2018-06-16T12:02:58.982Z,886.25
2018-06-16T12:03:58.974Z,886.26
2018-06-16T12:04:58.969Z,886.23
2018-06-16T12:05:58.965Z,886.28
2018-06-16T12:06:58.973Z,886.25
2018-06-16T12:07:58.954Z,886.26
2018-06-16T12:08:58.946Z,886.23
2018-06-16T12:09:58.935Z,886.23
2018-06-16T12:10:58.934Z,886.20
2018-06-16T12:11:58.927Z,886.24
2018-06-16T12:12:58.922Z,886.23
2018-06-16T12:13:58.919Z,886.21
2018-06-16T12:14:58.906Z,886.18
2018-06-16T12:15:58.902Z,886.22
2018-06-16T12:16:58.896Z,886.24
2018-06-16T12:17:58.894Z,886.20
2018-06-16T12:18:58.891Z,886.21
2018-06-16T12:19:58.881Z,886.25
2018-06-16T12:20:58.885Z,886.21
2018-06-16T12:21:58.867Z,886.23
2018-06-16T12:22:58.864Z,886.21
2018-06-16T12:23:58.860Z,886.18
2018-06-16T12:24:58.857Z,886.19
2018-06-16T12:25:58.843Z,886.20
2018-06-16T12:26:58.844Z,886.16
2018-06-16T12:27:58.835Z,886.18